createdAt,value
2022-10-02T00:01:57.306Z,16.80
2022-10-02T00:04:02.471Z,10.93
2022-10-02T00:06:12.758Z,15.30
2022-10-02T00:08:23.896Z,11.10
2022-10-02T00:10:33.112Z,8.20
2022-10-02T00:12:37.219Z,7.18
2022-10-02T00:14:42.966Z,10.52
2022-10-02T00:16:49.640Z,11.35
2022-10-02T00:18:55.328Z,13.77
2022-10-02T00:21:05.136Z,11.63
2022-10-02T00:23:14.560Z,9.85
2022-10-02T00:25:27.852Z,10.90
2022-10-02T00:27:50.474Z,9.63
2022-10-02T00:29:56.045Z,12.60
2022-10-02T00:32:12.543Z,9.95
2022-10-02T00:34:26.939Z,9.50
2022-10-02T00:36:44.873Z,8.57
2022-10-02T00:38:55.749Z,7.00
2022-10-02T00:41:25.310Z,8.13
2022-10-02T00:43:34.400Z,11.85
2022-10-02T00:46:07.375Z,7.47
2022-10-02T00:48:30.025Z,8.10
2022-10-02T00:50:44.047Z,6.85
2022-10-02T00:53:07.145Z,6.45
2022-10-02T00:55:33.162Z,6.53
2022-10-02T00:57:47.102Z,11.02
2022-10-02T01:00:02.629Z,8.25
2022-10-02T01:02:12.676Z,12.52
2022-10-02T01:04:20.826Z,7.78
2022-10-02T01:06:27.171Z,15.98
2022-10-02T01:08:32.160Z,7.68
2022-10-02T01:10:36.147Z,11.43
2022-10-02T01:12:40.099Z,5.93
2022-10-02T01:14:43.074Z,3.83
2022-10-02T01:16:46.340Z,6.28
2022-10-02T01:18:49.457Z,5.95
2022-10-02T01:20:55.394Z,5.43
2022-10-02T01:23:06.380Z,12.13
2022-10-02T01:25:10.809Z,6.53
2022-10-02T01:27:13.688Z,8.77
2022-10-02T01:29:16.541Z,8.40
2022-10-02T01:31:19.754Z,8.18
2022-10-02T01:33:23.748Z,9.57
2022-10-02T01:35:31.517Z,11.75
2022-10-02T01:37:38.427Z,8.23
2022-10-02T01:39:41.458Z,9.73
2022-10-02T01:41:46.608Z,8.05
2022-10-02T01:43:52.226Z,8.98
2022-10-02T01:46:18.477Z,9.02
2022-10-02T01:48:34.727Z,7.28
2022-10-02T01:50:49.121Z,6.30
2022-10-02T01:53:02.947Z,6.63
2022-10-02T01:55:23.117Z,13.18
2022-10-02T01:57:40.345Z,9.00
2022-10-02T01:59:54.899Z,5.90
2022-10-02T02:02:10.167Z,8.82
2022-10-02T02:04:22.184Z,8.93
2022-10-02T02:06:31.559Z,6.38
2022-10-02T02:08:38.063Z,8.63
2022-10-02T02:10:49.907Z,7.85
2022-10-02T02:13:01.238Z,8.38
2022-10-02T02:15:10.574Z,6.60
2022-10-02T02:17:17.674Z,10.27
2022-10-02T02:19:29.114Z,7.72
2022-10-02T02:21:36.016Z,5.65
2022-10-02T02:23:42.364Z,8.57
2022-10-02T02:25:49.498Z,6.05
2022-10-02T02:27:58.139Z,9.18
2022-10-02T02:30:05.213Z,9.70
2022-10-02T02:32:10.992Z,13.43
2022-10-02T02:34:18.036Z,3.88
2022-10-02T02:36:25.077Z,6.88
2022-10-02T02:38:32.049Z,9.02
2022-10-02T02:40:40.366Z,12.85
2022-10-02T02:42:47.312Z,6.18
2022-10-02T02:44:56.824Z,3.95
2022-10-02T02:47:04.534Z,7.47
2022-10-02T02:49:12.613Z,12.52
2022-10-02T02:51:19.887Z,16.08
2022-10-02T02:53:26.760Z,13.10
2022-10-02T02:55:34.307Z,11.23
2022-10-02T02:57:44.588Z,12.30
2022-10-02T02:59:52.729Z,9.95
2022-10-02T03:01:55.569Z,15.18
2022-10-02T03:03:58.322Z,8.15
2022-10-02T03:06:06.183Z,8.57
2022-10-02T03:08:18.390Z,7.88
2022-10-02T03:10:31.991Z,7.68
2022-10-02T03:12:47.680Z,9.10
2022-10-02T03:15:08.347Z,15.50
2022-10-02T03:17:24.069Z,13.05
2022-10-02T03:19:41.300Z,9.02
2022-10-02T03:21:55.792Z,8.88
2022-10-02T03:24:07.363Z,15.45
2022-10-02T03:26:18.127Z,10.75
2022-10-02T03:28:53.960Z,11.80
2022-10-02T03:30:55.627Z,9.65
2022-10-02T03:33:01.001Z,12.13
2022-10-02T03:35:06.415Z,15.27
2022-10-02T03:37:09.221Z,8.50
2022-10-02T03:39:24.806Z,11.93
2022-10-02T03:41:28.201Z,6.78
2022-10-02T03:43:31.642Z,10.55
2022-10-02T03:45:51.715Z,12.07
2022-10-02T03:47:56.331Z,7.10
2022-10-02T03:49:59.102Z,8.73
2022-10-02T03:52:02.359Z,14.23
2022-10-02T03:54:13.936Z,12.27
2022-10-02T03:56:27.200Z,10.48
2022-10-02T03:58:30.651Z,13.05
2022-10-02T04:00:36.928Z,11.05
2022-10-02T04:02:44.028Z,10.10
2022-10-02T04:04:54.649Z,9.90
2022-10-02T04:07:04.564Z,12.10
2022-10-02T04:09:13.510Z,12.00
2022-10-02T04:11:23.726Z,9.27
2022-10-02T04:13:32.607Z,10.23
2022-10-02T04:15:45.620Z,8.10
2022-10-02T04:17:54.733Z,10.15
2022-10-02T04:20:06.306Z,10.25
2022-10-02T04:22:15.200Z,10.20
2022-10-02T04:24:23.499Z,11.07
2022-10-02T04:26:31.365Z,10.93
2022-10-02T04:28:39.850Z,8.27
2022-10-02T04:30:42.616Z,8.95
2022-10-02T04:32:46.176Z,5.85
2022-10-02T04:34:48.937Z,9.13
2022-10-02T04:37:11.952Z,8.32
2022-10-02T04:39:30.457Z,12.20
2022-10-02T04:41:52.913Z,6.57
2022-10-02T04:44:08.654Z,11.60
2022-10-02T04:46:24.079Z,12.43
2022-10-02T04:48:46.484Z,11.07
2022-10-02T04:50:57.726Z,9.88
2022-10-02T04:53:21.543Z,8.93
2022-10-02T04:55:52.022Z,11.98
2022-10-02T04:58:15.923Z,6.90
2022-10-02T05:00:21.536Z,12.20
2022-10-02T05:02:35.322Z,11.05
2022-10-02T05:04:56.026Z,11.85
2022-10-02T05:07:12.771Z,9.07
2022-10-02T05:09:28.575Z,12.43
2022-10-02T05:11:54.050Z,8.82
2022-10-02T05:14:15.254Z,10.57
2022-10-02T05:16:37.414Z,8.48
2022-10-02T05:18:56.870Z,8.70
2022-10-02T05:21:18.483Z,8.00
2022-10-02T05:23:37.832Z,10.65
2022-10-02T05:26:14.254Z,10.15
2022-10-02T05:28:33.527Z,9.50
2022-10-02T05:30:46.871Z,10.85
2022-10-02T05:33:14.378Z,13.98
2022-10-02T05:35:34.283Z,10.55
2022-10-02T05:37:53.833Z,11.15
2022-10-02T05:40:04.169Z,18.30
2022-10-02T05:42:20.157Z,10.35
2022-10-02T05:44:27.285Z,11.85
2022-10-02T05:46:34.407Z,10.48
2022-10-02T05:48:42.638Z,8.30
2022-10-02T05:50:50.179Z,10.45
2022-10-02T05:52:58.868Z,13.13
2022-10-02T05:55:08.733Z,9.75
2022-10-02T05:57:21.913Z,13.70
2022-10-02T05:59:30.064Z,8.85
2022-10-02T06:01:37.569Z,6.75
2022-10-02T06:03:45.081Z,10.90
2022-10-02T06:05:56.232Z,8.77
2022-10-02T06:08:03.628Z,7.20
2022-10-02T06:10:12.008Z,10.48
2022-10-02T06:12:22.418Z,11.73
2022-10-02T06:14:31.743Z,12.05
2022-10-02T06:16:40.894Z,9.32
2022-10-02T06:18:50.813Z,10.00
2022-10-02T06:20:57.335Z,6.60
2022-10-02T06:23:05.356Z,11.15
2022-10-02T06:25:18.002Z,12.38
2022-10-02T06:27:32.546Z,11.88
2022-10-02T06:29:42.813Z,13.65
2022-10-02T06:31:52.284Z,9.73
2022-10-02T06:33:55.505Z,14.98
2022-10-02T06:36:23.834Z,10.68
2022-10-02T06:38:41.264Z,15.05
2022-10-02T06:40:48.001Z,13.73
2022-10-02T06:42:58.840Z,8.73
2022-10-02T06:45:11.927Z,14.15
2022-10-02T06:47:25.763Z,15.98
2022-10-02T06:49:40.367Z,13.85
2022-10-02T06:51:55.155Z,8.40
2022-10-02T06:54:17.050Z,10.38
2022-10-02T06:56:38.973Z,11.82
2022-10-02T06:58:56.487Z,12.02
2022-10-02T07:01:10.150Z,10.13
2022-10-02T07:03:23.538Z,7.65
2022-10-02T07:05:50.008Z,7.57
2022-10-02T07:08:01.656Z,12.45
2022-10-02T07:10:18.276Z,12.00
2022-10-02T07:12:41.315Z,9.98
2022-10-02T07:15:03.730Z,8.10
2022-10-02T07:17:23.219Z,7.95
2022-10-02T07:19:51.021Z,8.15
2022-10-02T07:22:25.856Z,8.32
2022-10-02T07:24:45.602Z,8.43
2022-10-02T07:26:53.210Z,10.07
2022-10-02T07:29:04.242Z,8.32
2022-10-02T07:31:21.359Z,4.95
2022-10-02T07:33:37.479Z,6.05
2022-10-02T07:35:48.197Z,9.52
2022-10-02T07:38:03.383Z,6.43
2022-10-02T07:42:55.455Z,7.00
2022-10-02T07:45:28.535Z,7.07
2022-10-02T07:47:48.565Z,8.57
2022-10-02T07:49:56.933Z,8.40
2022-10-02T07:52:07.336Z,5.05
2022-10-02T07:54:27.801Z,9.18
2022-10-02T07:56:31.526Z,5.35
2022-10-02T07:58:40.917Z,8.30
2022-10-02T08:00:48.582Z,7.80
2022-10-02T08:02:55.925Z,7.78
2022-10-02T08:05:03.670Z,5.40
2022-10-02T08:07:07.853Z,5.95
2022-10-02T08:09:15.241Z,4.97
2022-10-02T08:11:22.923Z,4.65
2022-10-02T08:13:32.843Z,6.28
2022-10-02T08:15:38.479Z,5.13
2022-10-02T08:17:49.787Z,7.35
2022-10-02T08:19:58.094Z,4.28
2022-10-02T08:22:04.090Z,3.42
2022-10-02T08:24:14.652Z,3.58
2022-10-02T08:26:22.413Z,2.65
2022-10-02T08:28:30.310Z,4.45
2022-10-02T08:30:35.851Z,1.63
2022-10-02T08:32:38.611Z,6.70
2022-10-02T08:34:44.064Z,3.58
2022-10-02T08:37:16.645Z,2.45
2022-10-02T08:39:39.528Z,4.63
2022-10-02T08:42:08.715Z,2.55
2022-10-02T08:44:51.775Z,2.45
2022-10-02T08:47:36.602Z,4.55
2022-10-02T08:50:14.873Z,3.75
2022-10-02T08:52:57.040Z,1.85
2022-10-02T08:55:44.043Z,3.22
2022-10-02T08:58:21.543Z,0.85
2022-10-02T09:00:26.252Z,4.03
2022-10-02T09:05:29.783Z,7.35
2022-10-02T09:08:10.673Z,4.93
2022-10-02T09:10:49.039Z,3.15
2022-10-02T09:13:24.281Z,2.22
2022-10-02T09:15:43.772Z,3.15
2022-10-02T09:18:00.113Z,4.90
2022-10-02T09:20:35.172Z,4.10
2022-10-02T09:23:08.036Z,4.40
2022-10-02T09:25:33.467Z,2.78
2022-10-02T09:28:11.720Z,5.18
2022-10-02T09:30:24.983Z,9.07
2022-10-02T09:32:56.170Z,1.92
2022-10-02T09:35:34.531Z,2.30
2022-10-02T09:38:14.101Z,2.15
2022-10-02T09:40:41.158Z,2.20
2022-10-02T09:43:22.505Z,1.80
2022-10-02T09:45:45.389Z,2.38
2022-10-02T09:48:27.408Z,3.70
2022-10-02T09:51:05.377Z,2.35
2022-10-02T09:53:40.492Z,2.17
2022-10-02T09:56:31.036Z,1.10
2022-10-02T09:59:02.322Z,1.65
2022-10-02T10:01:30.960Z,3.97
2022-10-02T10:03:55.294Z,1.77
2022-10-02T10:06:22.392Z,2.20
2022-10-02T10:08:56.197Z,1.73
2022-10-02T10:11:19.662Z,1.00
2022-10-02T10:14:14.088Z,2.80
2022-10-02T10:16:44.207Z,1.20
2022-10-02T10:19:22.157Z,1.00
2022-10-02T10:22:05.849Z,2.55
2022-10-02T10:24:45.279Z,1.08
2022-10-02T10:27:17.896Z,5.25
2022-10-02T10:30:01.751Z,2.05
2022-10-02T10:32:31.375Z,2.35
2022-10-02T10:35:03.913Z,2.13
2022-10-02T10:37:26.742Z,2.15
2022-10-02T10:40:17.126Z,1.70
2022-10-02T10:43:07.106Z,1.38
2022-10-02T10:45:34.453Z,2.58
2022-10-02T10:47:50.808Z,1.10
2022-10-02T10:50:19.634Z,2.10
2022-10-02T10:52:37.857Z,4.35
2022-10-02T10:54:55.754Z,2.33
2022-10-02T10:57:04.238Z,2.08
2022-10-02T10:59:43.441Z,1.30
2022-10-02T11:02:00.492Z,1.05
2022-10-02T11:04:44.401Z,1.70
2022-10-02T11:07:07.842Z,1.20
2022-10-02T11:09:33.617Z,2.45
2022-10-02T11:11:51.011Z,2.63
2022-10-02T11:14:07.684Z,4.43
2022-10-02T11:17:00.334Z,3.60
2022-10-02T11:19:21.799Z,3.15
2022-10-02T11:21:48.530Z,2.50
2022-10-02T11:24:08.582Z,3.72
2022-10-02T11:26:35.920Z,3.20
2022-10-02T11:29:17.690Z,1.90
2022-10-02T11:31:47.533Z,4.85
2022-10-02T11:34:24.458Z,3.60
2022-10-02T11:36:42.660Z,5.35
2022-10-02T11:39:14.801Z,2.10
2022-10-02T11:41:47.053Z,6.57
2022-10-02T11:44:09.427Z,2.60
2022-10-02T11:46:24.010Z,5.03
2022-10-02T11:48:51.489Z,3.17
2022-10-02T11:51:10.217Z,3.53
2022-10-02T11:53:49.233Z,2.50
2022-10-02T11:56:10.218Z,2.58
2022-10-02T11:58:26.133Z,3.28
2022-10-02T12:00:55.551Z,3.10
2022-10-02T12:03:04.974Z,5.55
2022-10-02T12:05:21.648Z,3.15
2022-10-02T12:07:34.977Z,2.15
2022-10-02T12:09:54.538Z,3.22
2022-10-02T12:12:08.222Z,2.60
2022-10-02T12:14:24.932Z,2.17
2022-10-02T12:16:41.814Z,1.52
2022-10-02T12:19:00.530Z,2.35
2022-10-02T12:21:34.460Z,3.13
2022-10-02T12:24:08.466Z,1.15
2022-10-02T12:26:42.944Z,1.92
2022-10-02T12:28:56.043Z,1.33
2022-10-02T12:31:06.476Z,1.70
2022-10-02T12:33:27.692Z,1.90
2022-10-02T12:35:41.698Z,2.13
2022-10-02T12:37:56.706Z,3.40
2022-10-02T12:40:10.123Z,4.68
2022-10-02T12:42:41.915Z,7.88
2022-10-02T12:45:14.707Z,2.75
2022-10-02T12:47:35.330Z,5.53
2022-10-02T12:49:50.648Z,3.88
2022-10-02T12:52:13.773Z,6.90
2022-10-02T12:54:40.394Z,2.80
2022-10-02T12:57:41.631Z,2.65
2022-10-02T12:59:55.730Z,5.03
2022-10-02T13:03:00.356Z,3.70
2022-10-02T13:05:44.647Z,1.92
2022-10-02T13:08:25.460Z,2.65
2022-10-02T13:10:35.826Z,2.15
2022-10-02T13:12:55.527Z,3.42
2022-10-02T13:15:22.624Z,4.07
2022-10-02T13:17:35.950Z,2.33
2022-10-02T13:19:50.955Z,3.75
2022-10-02T13:22:04.260Z,3.50
2022-10-02T13:24:27.316Z,2.30
2022-10-02T13:26:38.146Z,4.18
2022-10-02T13:29:19.167Z,4.55
2022-10-02T13:31:36.826Z,2.35
2022-10-02T13:34:00.531Z,2.03
2022-10-02T13:36:20.375Z,2.40
2022-10-02T13:38:39.303Z,3.10
2022-10-02T13:40:53.730Z,1.30
2022-10-02T13:43:40.635Z,2.97
2022-10-02T13:45:52.350Z,1.70
2022-10-02T13:48:03.100Z,1.20
2022-10-02T13:50:26.573Z,1.55
2022-10-02T13:52:35.865Z,1.35
2022-10-02T13:55:05.523Z,1.65
2022-10-02T13:57:20.556Z,3.17
2022-10-02T13:59:39.445Z,1.92
2022-10-02T14:01:58.179Z,1.58
2022-10-02T14:04:19.340Z,1.30
2022-10-02T14:06:27.734Z,1.30
2022-10-02T14:08:55.824Z,1.10
2022-10-02T14:11:10.580Z,3.55
2022-10-02T14:13:30.111Z,3.50
2022-10-02T14:15:48.139Z,1.98
2022-10-02T14:18:22.578Z,3.10
2022-10-02T14:20:43.502Z,1.48
2022-10-02T14:23:08.285Z,5.10
2022-10-02T14:25:30.741Z,5.68
2022-10-02T14:28:14.500Z,2.53
2022-10-02T14:30:21.299Z,3.20
2022-10-02T14:32:44.062Z,6.00
2022-10-02T14:35:13.459Z,2.63
2022-10-02T14:38:04.964Z,3.70
2022-10-02T14:40:14.112Z,7.35
2022-10-02T14:42:32.383Z,3.03
2022-10-02T14:44:57.284Z,5.15
2022-10-02T14:47:23.178Z,1.17
2022-10-02T14:50:03.742Z,3.45
2022-10-02T14:52:25.686Z,1.42
2022-10-02T14:54:43.554Z,1.42
2022-10-02T14:57:04.598Z,2.88
2022-10-02T14:59:28.035Z,2.53
2022-10-02T15:01:31.322Z,1.40
2022-10-02T15:04:13.621Z,1.95
2022-10-02T15:06:28.409Z,3.05
2022-10-02T15:08:36.712Z,1.75
2022-10-02T15:10:42.114Z,1.65
2022-10-02T15:12:55.690Z,1.27
2022-10-02T15:15:10.655Z,3.05
2022-10-02T15:17:35.724Z,3.25
2022-10-02T15:19:49.731Z,4.25
2022-10-02T15:21:59.061Z,2.20
2022-10-02T15:24:28.554Z,3.63
2022-10-02T15:26:46.822Z,3.33
2022-10-02T15:29:03.054Z,2.92
2022-10-02T15:31:17.038Z,2.83
2022-10-02T15:33:25.558Z,2.17
2022-10-02T15:35:48.205Z,4.90
2022-10-02T15:38:09.857Z,3.08
2022-10-02T15:40:27.376Z,3.22
2022-10-02T15:42:50.036Z,5.57
2022-10-02T15:45:08.905Z,5.20
2022-10-02T15:47:31.898Z,2.28
2022-10-02T15:49:53.477Z,3.92
2022-10-02T15:52:08.733Z,8.13
2022-10-02T15:54:22.927Z,5.97
2022-10-02T15:56:47.127Z,3.10
2022-10-02T15:59:06.696Z,5.25
2022-10-02T16:01:28.427Z,3.75
2022-10-02T16:03:39.832Z,3.47
2022-10-02T16:05:53.774Z,2.63
2022-10-02T16:08:32.403Z,5.15
2022-10-02T16:10:49.124Z,7.55
2022-10-02T16:13:26.011Z,3.55
2022-10-02T16:15:33.436Z,3.58
2022-10-02T16:18:13.768Z,7.35
2022-10-02T16:20:44.025Z,4.63
2022-10-02T16:23:02.292Z,7.97
2022-10-02T16:25:26.313Z,8.98
2022-10-02T16:27:32.703Z,5.60
2022-10-02T16:29:49.728Z,5.78
2022-10-02T16:32:10.420Z,6.03
2022-10-02T16:34:23.838Z,5.30
2022-10-02T16:36:33.534Z,3.42
2022-10-02T16:38:48.688Z,2.80
2022-10-02T16:40:58.036Z,3.97
2022-10-02T16:43:27.878Z,4.28
2022-10-02T16:45:42.804Z,3.80
2022-10-02T16:47:50.851Z,4.35
2022-10-02T16:49:58.986Z,6.80
2022-10-02T16:52:10.348Z,7.35
2022-10-02T16:54:24.223Z,6.10
2022-10-02T16:56:33.532Z,5.05
2022-10-02T16:58:46.211Z,6.97
2022-10-02T17:00:58.653Z,5.78
2022-10-02T17:03:09.976Z,6.38
2022-10-02T17:05:24.567Z,6.45
2022-10-02T17:07:34.040Z,9.10
2022-10-02T17:09:45.131Z,7.20
2022-10-02T17:11:52.357Z,7.75
2022-10-02T17:14:10.596Z,10.43
2022-10-02T17:16:21.436Z,6.05
2022-10-02T17:18:35.303Z,8.00
2022-10-02T17:20:44.813Z,6.07
2022-10-02T17:22:57.794Z,6.07
2022-10-02T17:25:15.695Z,6.55
2022-10-02T17:27:29.560Z,5.68
2022-10-02T17:29:39.190Z,7.38
2022-10-02T17:31:51.759Z,5.65
2022-10-02T17:33:57.324Z,6.05
2022-10-02T17:36:07.475Z,6.63
2022-10-02T17:38:41.010Z,3.28
2022-10-02T17:40:55.569Z,6.65
2022-10-02T17:43:02.715Z,6.97
2022-10-02T17:45:19.142Z,5.53
2022-10-02T17:47:45.013Z,5.13
2022-10-02T17:50:03.512Z,6.60
2022-10-02T17:52:38.833Z,7.55
2022-10-02T17:55:16.443Z,4.07
2022-10-02T17:57:44.719Z,6.63
2022-10-02T18:00:20.559Z,4.88
2022-10-02T18:02:59.049Z,6.53
2022-10-02T18:05:18.626Z,7.10
2022-10-02T18:07:37.979Z,5.53
2022-10-02T18:10:01.760Z,7.20
2022-10-02T18:12:26.796Z,6.05
2022-10-02T18:14:52.215Z,7.10
2022-10-02T18:17:14.157Z,5.93
2022-10-02T18:19:37.868Z,7.32
2022-10-02T18:21:48.305Z,8.15
2022-10-02T18:24:17.092Z,6.32
2022-10-02T18:26:34.443Z,8.00
2022-10-02T18:29:03.232Z,7.57
2022-10-02T18:31:44.292Z,7.25
2022-10-02T18:34:06.738Z,4.70
2022-10-02T18:36:21.025Z,7.55
2022-10-02T18:38:31.267Z,5.67
2022-10-02T18:40:49.495Z,5.10
2022-10-02T18:43:27.085Z,5.45
2022-10-02T18:45:48.045Z,9.98
2022-10-02T18:48:00.209Z,6.95
2022-10-02T18:50:19.509Z,7.90
2022-10-02T18:52:43.860Z,4.20
2022-10-02T18:55:02.937Z,4.82
2022-10-02T18:57:25.744Z,6.93
2022-10-02T18:59:43.579Z,5.97
2022-10-02T19:01:56.613Z,6.68
2022-10-02T19:04:15.582Z,8.05
2022-10-02T19:06:25.651Z,6.82
2022-10-02T19:08:54.694Z,5.38
2022-10-02T19:10:57.656Z,5.88
2022-10-02T19:13:04.523Z,6.57
2022-10-02T19:15:21.576Z,8.38
2022-10-02T19:17:26.395Z,10.70
2022-10-02T19:19:30.094Z,10.52
2022-10-02T19:21:36.567Z,9.60
2022-10-02T19:23:52.603Z,12.38
2022-10-02T19:25:58.363Z,12.18
2022-10-02T19:28:03.895Z,12.63
2022-10-02T19:30:08.981Z,13.55
2022-10-02T19:32:18.861Z,12.73
2022-10-02T19:34:24.951Z,12.60
2022-10-02T19:36:31.863Z,11.63
2022-10-02T19:38:37.810Z,9.32
2022-10-02T19:40:42.803Z,10.13
2022-10-02T19:42:49.941Z,7.95
2022-10-02T19:44:56.835Z,11.98
2022-10-02T19:47:03.937Z,8.10
2022-10-02T19:49:08.691Z,9.27
2022-10-02T19:53:24.743Z,5.88
2022-10-02T19:55:32.595Z,8.48
2022-10-02T19:57:41.241Z,8.95
2022-10-02T19:59:49.461Z,8.25
2022-10-02T20:01:54.710Z,7.90
2022-10-02T20:04:00.258Z,7.53
2022-10-02T20:06:12.232Z,8.98
2022-10-02T20:08:17.663Z,10.98
2022-10-02T20:10:27.197Z,8.73
2022-10-02T20:12:32.884Z,7.80
2022-10-02T20:14:45.877Z,10.32
2022-10-02T20:17:06.644Z,10.00
2022-10-02T20:19:17.410Z,8.32
2022-10-02T20:21:36.917Z,7.00
2022-10-02T20:23:43.295Z,9.20
2022-10-02T20:25:51.322Z,5.95
2022-10-02T20:27:59.347Z,8.48
2022-10-02T20:30:11.156Z,8.25
2022-10-02T20:32:18.780Z,6.45
2022-10-02T20:34:28.026Z,5.40
2022-10-02T20:36:38.374Z,6.65
2022-10-02T20:38:46.289Z,7.88
2022-10-02T20:40:53.122Z,11.15
2022-10-02T20:43:01.188Z,7.78
2022-10-02T20:45:06.692Z,5.65
2022-10-02T20:47:35.411Z,7.20
2022-10-02T20:49:59.412Z,5.43
2022-10-02T20:52:25.387Z,6.85
2022-10-02T20:54:43.477Z,4.82
2022-10-02T20:57:20.193Z,5.63
2022-10-02T21:00:11.967Z,11.45
2022-10-02T21:02:31.128Z,8.50
2022-10-02T21:04:56.622Z,7.72
2022-10-02T21:07:19.067Z,7.57
2022-10-02T21:09:54.363Z,8.95
2022-10-02T21:12:16.001Z,11.13
2022-10-02T21:14:43.417Z,22.85
2022-10-02T21:17:27.988Z,20.20
2022-10-02T21:20:04.217Z,28.67
2022-10-02T21:25:11.209Z,10.73
2022-10-02T21:27:44.661Z,21.80
2022-10-02T21:30:02.966Z,12.32
2022-10-02T21:32:36.260Z,8.50
2022-10-02T21:34:51.841Z,8.13
2022-10-02T21:37:00.298Z,11.88
2022-10-02T21:39:43.687Z,9.70
2022-10-02T21:42:35.260Z,9.57
2022-10-02T21:45:13.642Z,8.98
2022-10-02T21:47:43.609Z,7.20
2022-10-02T21:50:43.207Z,9.73
2022-10-02T21:53:31.766Z,18.77
2022-10-02T21:56:27.738Z,10.23
2022-10-02T21:59:09.327Z,17.17
2022-10-02T22:01:57.383Z,7.60
2022-10-02T22:04:33.467Z,11.80
2022-10-02T22:06:53.784Z,27.85
2022-10-02T22:09:12.902Z,28.42
2022-10-02T22:11:24.695Z,11.68
2022-10-02T22:13:33.729Z,11.95
2022-10-02T22:15:45.503Z,8.23
2022-10-02T22:18:11.483Z,13.38
2022-10-02T22:20:36.574Z,5.32
2022-10-02T22:22:56.552Z,7.85
2022-10-02T22:25:13.814Z,6.60
2022-10-02T22:27:36.711Z,8.50
2022-10-02T22:29:46.510Z,5.22
2022-10-02T22:32:17.745Z,4.68
2022-10-02T22:34:39.863Z,6.35
2022-10-02T22:37:04.757Z,6.78
2022-10-02T22:39:15.538Z,8.02
2022-10-02T22:41:27.059Z,6.63
2022-10-02T22:43:37.945Z,4.80
2022-10-02T22:45:48.978Z,6.45
2022-10-02T22:47:59.990Z,8.20
2022-10-02T22:50:09.623Z,6.35
2022-10-02T22:52:21.502Z,5.95
2022-10-02T22:54:32.836Z,6.50
2022-10-02T22:56:41.175Z,7.43
2022-10-02T22:58:52.905Z,9.95
2022-10-02T23:01:02.313Z,5.53
2022-10-02T23:03:12.565Z,8.48
2022-10-02T23:05:18.275Z,7.22
2022-10-02T23:07:27.871Z,5.95
2022-10-02T23:09:43.233Z,5.82
2022-10-02T23:11:51.222Z,5.88
2022-10-02T23:13:59.934Z,6.85
2022-10-02T23:16:06.931Z,6.38
2022-10-02T23:18:20.796Z,7.78
2022-10-02T23:20:30.077Z,9.98
2022-10-02T23:22:36.762Z,5.38
2022-10-02T23:24:49.851Z,5.63
2022-10-02T23:26:55.683Z,6.15
2022-10-02T23:29:15.723Z,3.20
2022-10-02T23:31:22.974Z,4.93
2022-10-02T23:33:29.086Z,6.05
2022-10-02T23:35:38.151Z,6.32
2022-10-02T23:37:48.710Z,7.25
2022-10-02T23:39:58.450Z,5.78
2022-10-02T23:42:00.367Z,6.05
2022-10-02T23:44:17.924Z,5.38
2022-10-02T23:46:27.214Z,6.05
2022-10-02T23:48:32.276Z,9.32
2022-10-02T23:50:46.656Z,5.47
2022-10-02T23:53:05.163Z,5.17
2022-10-02T23:55:20.810Z,4.90
2022-10-02T23:57:41.440Z,5.68
